Terminal Aerodrome Forecast
Issued by NWS Cleveland, OH

Home | Current Version | Previous Version | Graphics & Text | Print | Product List | Glossary On
Versions: 1 2 3 4 5 6 7 8 9 10 11 12 13 14 15 16 17 18
000
FTUS41 KCLE 291700
TAFERI
TAF
KERI 291730Z 2918/3018 20012G22KT P6SM SCT250
     FM300100 19015G25KT P6SM OVC100
     FM300200 19015G30KT 6SM -SHRASN OVC050
     FM300500 21015G25KT 4SM -SHRASN OVC025
     FM301000 25015G25KT P6SM VCSH OVC015
     FM301400 27015G25KT P6SM OVC025=

USA.gov is the U.S. government's official web portal to all federal, state and local government web resources and services.